Time;durP1;ratioP1;P1;durP2;ratioP2;P2;SDS_P1;SDS_P2;PMS_P1;PMS_P2;Temp;Humidity;BMP_temperature;BMP_pressure;BME280_temperature;BME280_humidity;BME280_pressure;Samples;Min_cycle;Max_cycle;Signal;HPM_P1;HPM_P2
2023/09/26 00:00:21;;;;;;;7.22;5.78;;;;;;;;;;5028419;28;20050;-91
2023/09/26 00:02:50;;;;;;;5.60;5.20;;;;;;;;;;5045996;28;20053;-91
2023/09/26 00:05:19;;;;;;;7.45;5.47;;;;;;;;;;5032850;28;20496;-91
2023/09/26 00:07:48;;;;;;;6.25;5.68;;;;;;;;;;5031423;28;20049;-91
2023/09/26 00:10:16;;;;;;;6.43;5.82;;;;;;;;;;5031212;28;20101;-91
2023/09/26 00:12:44;;;;;;;6.78;6.20;;;;;;;;;;5029171;28;20054;-91
2023/09/26 00:15:11;;;;;;;6.70;5.45;;;;;;;;;;5031612;28;20049;-91
2023/09/26 00:17:39;;;;;;;5.38;4.93;;;;;;;;;;5032484;28;20088;-91
2023/09/26 00:20:28;;;;;;;6.45;5.38;;;;;;;;;;5031990;28;20081;-91
2023/09/26 00:22:55;;;;;;;6.20;5.68;;;;;;;;;;5031807;28;20057;-90
2023/09/26 00:25:24;;;;;;;5.82;5.25;;;;;;;;;;5031580;28;20049;-91
2023/09/26 00:27:52;;;;;;;5.65;5.25;;;;;;;;;;5031604;28;20056;-91
2023/09/26 00:30:25;;;;;;;6.32;5.82;;;;;;;;;;5032326;28;20064;-91
2023/09/26 00:32:52;;;;;;;7.03;6.07;;;;;;;;;;5032340;28;20115;-90
2023/09/26 00:35:20;;;;;;;6.55;5.72;;;;;;;;;;5031457;28;20081;-91
2023/09/26 00:37:51;;;;;;;10.35;6.00;;;;;;;;;;5031573;28;20052;-91
2023/09/26 00:40:22;;;;;;;6.30;5.50;;;;;;;;;;5031203;28;20448;-92
2023/09/26 00:42:50;;;;;;;7.32;5.20;;;;;;;;;;5033653;28;20050;-91
2023/09/26 00:45:17;;;;;;;6.88;6.28;;;;;;;;;;5050990;28;20053;-91
2023/09/26 00:47:45;;;;;;;6.97;5.95;;;;;;;;;;5034947;28;20046;-91
2023/09/26 00:50:13;;;;;;;5.57;5.18;;;;;;;;;;5034740;28;20049;-91
2023/09/26 00:52:42;;;;;;;7.40;5.20;;;;;;;;;;5035091;28;20069;-91
2023/09/26 00:55:10;;;;;;;6.20;5.63;;;;;;;;;;5035745;28;20464;-91
2023/09/26 00:57:37;;;;;;;7.80;6.20;;;;;;;;;;5035968;28;20107;-91
2023/09/26 01:00:08;;;;;;;6.50;5.78;;;;;;;;;;5026457;28;20104;-90
2023/09/26 01:02:35;;;;;;;5.93;5.43;;;;;;;;;;5035016;28;20413;-91
2023/09/26 01:05:03;;;;;;;6.38;5.75;;;;;;;;;;5034411;28;20462;-91
2023/09/26 01:07:31;;;;;;;8.93;6.00;;;;;;;;;;5034722;28;20053;-91
2023/09/26 01:09:58;;;;;;;9.15;5.97;;;;;;;;;;5034460;28;20548;-91
2023/09/26 01:12:26;;;;;;;6.50;5.57;;;;;;;;;;5034366;28;20049;-90
2023/09/26 01:14:55;;;;;;;7.63;6.32;;;;;;;;;;5033940;28;20108;-91
2023/09/26 01:17:22;;;;;;;8.98;6.07;;;;;;;;;;5034380;28;20049;-91
2023/09/26 01:19:49;;;;;;;6.72;6.13;;;;;;;;;;5035113;28;20049;-91
2023/09/26 01:22:17;;;;;;;7.13;6.28;;;;;;;;;;5035271;28;20046;-90
2023/09/26 01:24:44;;;;;;;6.65;5.95;;;;;;;;;;5033852;28;20049;-91
2023/09/26 01:27:12;;;;;;;5.95;5.45;;;;;;;;;;5033961;28;20049;-91
2023/09/26 01:29:39;;;;;;;6.20;5.70;;;;;;;;;;5034932;28;20076;-91
2023/09/26 01:32:06;;;;;;;6.10;5.60;;;;;;;;;;5035112;28;20087;-91
2023/09/26 01:34:34;;;;;;;7.38;6.55;;;;;;;;;;5034244;28;20103;-91
2023/09/26 01:37:01;;;;;;;6.20;5.63;;;;;;;;;;5033998;28;20050;-91
2023/09/26 01:39:30;;;;;;;8.07;6.00;;;;;;;;;;5035121;28;20422;-91
2023/09/26 01:41:57;;;;;;;6.47;5.85;;;;;;;;;;5034482;28;20096;-92
2023/09/26 01:44:24;;;;;;;6.35;5.53;;;;;;;;;;5051522;28;20045;-90
2023/09/26 01:46:52;;;;;;;5.88;5.38;;;;;;;;;;5034353;28;20057;-91
2023/09/26 01:49:20;;;;;;;5.90;5.40;;;;;;;;;;5034122;28;20141;-91
2023/09/26 01:51:47;;;;;;;5.82;5.38;;;;;;;;;;5033448;28;20136;-90
2023/09/26 01:54:15;;;;;;;5.72;5.30;;;;;;;;;;5029262;28;20050;-91
2023/09/26 01:56:42;;;;;;;5.53;5.03;;;;;;;;;;5047245;28;20049;-91
2023/09/26 01:59:10;;;;;;;5.85;5.35;;;;;;;;;;5033812;28;20056;-91
2023/09/26 02:01:37;;;;;;;5.93;5.53;;;;;;;;;;5033549;28;20053;-91
2023/09/26 02:04:05;;;;;;;7.35;5.68;;;;;;;;;;5025585;28;20136;-91
2023/09/26 02:06:33;;;;;;;5.88;5.38;;;;;;;;;;5029963;28;20068;-91
2023/09/26 02:09:00;;;;;;;5.95;5.38;;;;;;;;;;5049423;28;20069;-91
2023/09/26 02:11:28;;;;;;;7.78;5.35;;;;;;;;;;5033305;28;20107;-91
2023/09/26 02:13:55;;;;;;;6.03;5.50;;;;;;;;;;5033458;28;20512;-91
2023/09/26 02:16:23;;;;;;;6.03;5.45;;;;;;;;;;5033519;28;20498;-91
2023/09/26 02:18:50;;;;;;;5.45;5.00;;;;;;;;;;5033343;28;20053;-91
2023/09/26 02:21:20;;;;;;;7.20;6.50;;;;;;;;;;5033261;28;20071;-91
2023/09/26 02:23:48;;;;;;;5.93;5.50;;;;;;;;;;5033252;28;20080;-91
2023/09/26 02:26:19;;;;;;;5.00;4.60;;;;;;;;;;5034070;28;20496;-91
2023/09/26 02:28:46;;;;;;;5.57;5.15;;;;;;;;;;5033180;28;20056;-91
2023/09/26 02:31:16;;;;;;;5.55;5.15;;;;;;;;;;5034169;28;20049;-91
2023/09/26 02:33:45;;;;;;;9.43;5.60;;;;;;;;;;5030081;28;20137;-91
2023/09/26 02:36:12;;;;;;;5.78;5.03;;;;;;;;;;5032910;28;20140;-91
2023/09/26 02:38:39;;;;;;;7.53;5.47;;;;;;;;;;5034335;28;20488;-91
2023/09/26 02:41:07;;;;;;;6.00;5.28;;;;;;;;;;5032930;28;20045;-91
2023/09/26 02:43:34;;;;;;;6.85;5.40;;;;;;;;;;5032974;28;20461;-92
2023/09/26 02:46:02;;;;;;;6.50;5.35;;;;;;;;;;5033402;28;20053;-91
2023/09/26 02:48:30;;;;;;;6.60;5.38;;;;;;;;;;5032798;28;20042;-91
2023/09/26 02:51:06;;;;;;;6.07;5.47;;;;;;;;;;5031492;28;20046;-91
2023/09/26 02:53:33;;;;;;;6.03;5.32;;;;;;;;;;5030256;28;20049;-91
2023/09/26 02:56:01;;;;;;;5.57;5.00;;;;;;;;;;5032776;28;20045;-91
2023/09/26 02:58:28;;;;;;;6.40;5.82;;;;;;;;;;5033343;28;20108;-92
2023/09/26 03:00:55;;;;;;;6.35;5.63;;;;;;;;;;5048760;28;20045;-91
2023/09/26 03:03:23;;;;;;;8.30;6.13;;;;;;;;;;5032733;28;20049;-91
2023/09/26 03:05:51;;;;;;;6.97;6.00;;;;;;;;;;5032099;28;20049;-92
2023/09/26 03:08:18;;;;;;;8.50;6.20;;;;;;;;;;5032767;28;20054;-91
2023/09/26 03:10:46;;;;;;;12.10;6.97;;;;;;;;;;5032618;28;20045;-91
2023/09/26 03:13:13;;;;;;;15.70;6.93;;;;;;;;;;5032337;28;20080;-91
2023/09/26 03:15:40;;;;;;;9.07;6.30;;;;;;;;;;5033725;28;20107;-92
2023/09/26 03:18:08;;;;;;;9.50;5.97;;;;;;;;;;5032343;28;20053;-91
2023/09/26 03:20:38;;;;;;;9.15;6.30;;;;;;;;;;5033541;28;20053;-92
2023/09/26 03:23:06;;;;;;;6.93;6.22;;;;;;;;;;5033443;28;20049;-91
2023/09/26 03:25:33;;;;;;;6.35;5.53;;;;;;;;;;5032492;28;20132;-90
2023/09/26 03:28:02;;;;;;;6.18;5.35;;;;;;;;;;5033113;28;20410;-92
2023/09/26 03:30:29;;;;;;;8.70;5.53;;;;;;;;;;5032353;28;20064;-91
2023/09/26 03:32:56;;;;;;;6.97;5.90;;;;;;;;;;5032252;28;20183;-91
2023/09/26 03:35:24;;;;;;;8.82;6.20;;;;;;;;;;5028744;28;20054;-92
2023/09/26 03:37:51;;;;;;;7.68;6.40;;;;;;;;;;5046869;28;20073;-92
2023/09/26 03:40:18;;;;;;;10.98;6.13;;;;;;;;;;5032676;28;20053;-92
2023/09/26 03:42:45;;;;;;;15.02;6.88;;;;;;;;;;5031987;28;20045;-92
2023/09/26 03:45:13;;;;;;;8.05;5.85;;;;;;;;;;5032174;28;20053;-92
2023/09/26 03:47:40;;;;;;;11.60;5.78;;;;;;;;;;5033148;28;20050;-91
2023/09/26 03:50:08;;;;;;;6.50;5.90;;;;;;;;;;5032952;28;20061;-92
2023/09/26 03:52:35;;;;;;;8.43;5.70;;;;;;;;;;5032235;28;20049;-92
2023/09/26 03:55:03;;;;;;;6.38;5.85;;;;;;;;;;5032504;28;20081;-92
2023/09/26 03:57:31;;;;;;;7.53;6.03;;;;;;;;;;5048450;28;20049;-92
2023/09/26 03:59:58;;;;;;;6.53;5.78;;;;;;;;;;5032448;28;20053;-93
2023/09/26 04:02:25;;;;;;;9.55;6.03;;;;;;;;;;5031692;28;20103;-93
2023/09/26 04:04:53;;;;;;;6.60;5.63;;;;;;;;;;5031570;28;20508;-92
2023/09/26 04:07:22;;;;;;;5.93;5.40;;;;;;;;;;5032410;28;20199;-92
2023/09/26 04:09:49;;;;;;;7.35;5.65;;;;;;;;;;5032346;28;20552;-92
2023/09/26 04:12:16;;;;;;;10.02;5.90;;;;;;;;;;5032820;28;20057;-92
2023/09/26 04:14:44;;;;;;;11.57;6.57;;;;;;;;;;5031976;28;20053;-92
2023/09/26 04:17:11;;;;;;;8.95;5.82;;;;;;;;;;5029399;28;20127;-92
2023/09/26 04:19:38;;;;;;;17.02;6.25;;;;;;;;;;5032798;28;20107;-92
2023/09/26 04:22:06;;;;;;;10.73;6.82;;;;;;;;;;5028054;28;20050;-92
2023/09/26 04:24:33;;;;;;;10.52;5.90;;;;;;;;;;5037132;28;20489;-92
2023/09/26 04:27:00;;;;;;;13.23;7.47;;;;;;;;;;5036470;28;20050;-92
2023/09/26 04:29:28;;;;;;;18.05;7.28;;;;;;;;;;5051378;28;20050;-92
2023/09/26 04:31:55;;;;;;;11.48;7.05;;;;;;;;;;5035474;28;20482;-92
2023/09/26 04:34:26;;;;;;;7.53;6.22;;;;;;;;;;5032487;28;20046;-92
2023/09/26 04:36:53;;;;;;;6.72;6.03;;;;;;;;;;5050761;28;20046;-92
2023/09/26 04:39:21;;;;;;;9.13;6.40;;;;;;;;;;5037617;28;20088;-92
2023/09/26 04:41:48;;;;;;;8.82;6.13;;;;;;;;;;5036521;28;20049;-92
2023/09/26 04:44:16;;;;;;;7.78;6.55;;;;;;;;;;5035157;28;20494;-92
2023/09/26 04:46:43;;;;;;;6.75;5.95;;;;;;;;;;5034830;28;20049;-91
2023/09/26 04:49:11;;;;;;;8.77;6.90;;;;;;;;;;5034841;28;20049;-91
2023/09/26 04:51:38;;;;;;;8.88;6.65;;;;;;;;;;5034910;28;20417;-92
2023/09/26 04:54:06;;;;;;;17.85;10.60;;;;;;;;;;5026936;28;20041;-92
2023/09/26 04:56:35;;;;;;;19.52;12.07;;;;;;;;;;5034726;28;20452;-92
2023/09/26 04:59:04;;;;;;;16.80;10.43;;;;;;;;;;5034238;28;20490;-92
2023/09/26 05:01:32;;;;;;;35.08;18.58;;;;;;;;;;5034482;28;20049;-93
2023/09/26 05:03:59;;;;;;;29.40;16.27;;;;;;;;;;5034694;28;20057;-92
2023/09/26 05:06:29;;;;;;;21.83;10.48;;;;;;;;;;5034617;28;20072;-93
2023/09/26 05:08:56;;;;;;;10.43;7.63;;;;;;;;;;5034336;28;20387;-92
2023/09/26 05:11:26;;;;;;;20.80;8.00;;;;;;;;;;5034794;28;20119;-92
2023/09/26 05:13:53;;;;;;;15.65;7.40;;;;;;;;;;5034330;28;20056;-92
2023/09/26 05:16:21;;;;;;;9.50;6.60;;;;;;;;;;5034020;28;20076;-92
2023/09/26 05:18:48;;;;;;;16.35;7.10;;;;;;;;;;5034847;28;20058;-92
2023/09/26 05:21:16;;;;;;;10.95;8.50;;;;;;;;;;5034295;28;20050;-91
2023/09/26 05:23:43;;;;;;;14.00;9.43;;;;;;;;;;5034427;28;20053;-92
2023/09/26 05:26:12;;;;;;;10.02;8.23;;;;;;;;;;5034131;28;20049;-92
2023/09/26 05:28:40;;;;;;;9.60;7.05;;;;;;;;;;5034455;28;20049;-92
2023/09/26 05:31:08;;;;;;;7.05;6.35;;;;;;;;;;5026570;28;20057;-93
2023/09/26 05:33:36;;;;;;;6.20;5.70;;;;;;;;;;5034194;28;20045;-93
2023/09/26 05:36:06;;;;;;;9.05;7.35;;;;;;;;;;5033784;28;20049;-92
2023/09/26 05:38:34;;;;;;;12.98;7.55;;;;;;;;;;5034804;28;20050;-92
2023/09/26 05:41:02;;;;;;;10.18;8.27;;;;;;;;;;5033605;28;20050;-92
2023/09/26 05:43:30;;;;;;;11.75;7.60;;;;;;;;;;5050590;28;20049;-93
2023/09/26 05:45:59;;;;;;;8.07;7.25;;;;;;;;;;5033567;28;20095;-93
2023/09/26 05:48:27;;;;;;;9.18;7.93;;;;;;;;;;5034051;28;20543;-92
2023/09/26 05:50:58;;;;;;;12.40;8.38;;;;;;;;;;5033649;28;20046;-93
2023/09/26 05:53:26;;;;;;;12.55;9.52;;;;;;;;;;5034052;28;20103;-93
2023/09/26 05:55:53;;;;;;;9.93;8.90;;;;;;;;;;5032711;28;20497;-93
2023/09/26 05:58:21;;;;;;;12.23;9.57;;;;;;;;;;5050198;28;20544;-92
2023/09/26 06:00:49;;;;;;;13.32;10.02;;;;;;;;;;5031377;28;20049;-92
2023/09/26 06:03:16;;;;;;;19.38;14.02;;;;;;;;;;5033522;28;20528;-93
2023/09/26 06:05:44;;;;;;;42.25;24.77;;;;;;;;;;5030393;28;20070;-93
2023/09/26 06:08:12;;;;;;;13.65;10.88;;;;;;;;;;5033507;28;20049;-92
2023/09/26 06:10:40;;;;;;;14.02;8.23;;;;;;;;;;5033317;28;20080;-92
2023/09/26 06:13:07;;;;;;;18.42;13.68;;;;;;;;;;5033653;28;20045;-92
2023/09/26 06:15:35;;;;;;;30.27;22.85;;;;;;;;;;5033329;28;20095;-93
2023/09/26 06:18:03;;;;;;;34.28;27.75;;;;;;;;;;5032942;28;20059;-92
2023/09/26 06:20:31;;;;;;;20.52;11.55;;;;;;;;;;5033418;28;20049;-92
2023/09/26 06:22:59;;;;;;;19.50;11.80;;;;;;;;;;5033052;28;20537;-92
2023/09/26 06:25:26;;;;;;;15.85;8.93;;;;;;;;;;5032976;28;20076;-93
2023/09/26 06:28:00;;;;;;;8.50;6.68;;;;;;;;;;5033281;28;20087;-93
2023/09/26 06:30:28;;;;;;;7.72;6.63;;;;;;;;;;5032923;28;20064;-93
2023/09/26 06:32:56;;;;;;;10.88;8.05;;;;;;;;;;5032955;28;20049;-91
2023/09/26 06:35:23;;;;;;;10.50;7.43;;;;;;;;;;5029459;28;20116;-90
2023/09/26 06:37:50;;;;;;;11.20;9.55;;;;;;;;;;5047684;28;20099;-93
2023/09/26 06:40:18;;;;;;;35.72;10.27;;;;;;;;;;5032228;28;20050;-92
2023/09/26 06:42:46;;;;;;;33.28;14.00;;;;;;;;;;5032952;28;20064;-92
2023/09/26 06:45:23;;;;;;;33.78;13.18;;;;;;;;;;5049392;28;20502;-92
2023/09/26 06:47:50;;;;;;;22.65;15.38;;;;;;;;;;5030686;28;20473;-91
2023/09/26 06:50:18;;;;;;;26.40;12.02;;;;;;;;;;5049191;28;20109;-91
2023/09/26 06:52:45;;;;;;;19.88;11.32;;;;;;;;;;5032726;28;20486;-90
2023/09/26 06:55:12;;;;;;;12.95;10.10;;;;;;;;;;5048896;28;20053;-91
2023/09/26 06:57:40;;;;;;;18.52;9.77;;;;;;;;;;5049161;28;20053;-90
2023/09/26 07:00:16;;;;;;;16.33;9.73;;;;;;;;;;5021195;28;20060;-90
2023/09/26 07:02:45;;;;;;;43.45;10.55;;;;;;;;;;5046134;28;20132;-90
2023/09/26 07:05:12;;;;;;;50.35;10.65;;;;;;;;;;5049127;28;20053;-92
2023/09/26 07:07:39;;;;;;;35.90;10.10;;;;;;;;;;5032563;28;20103;-90
2023/09/26 07:10:07;;;;;;;35.00;10.13;;;;;;;;;;5032436;28;20077;-90
2023/09/26 07:12:47;;;;;;;17.90;8.55;;;;;;;;;;5025009;28;20486;-91
2023/09/26 07:15:14;;;;;;;23.10;9.70;;;;;;;;;;5042055;28;20072;-90
2023/09/26 07:17:42;;;;;;;16.27;8.73;;;;;;;;;;5032483;28;20084;-90
2023/09/26 07:20:15;;;;;;;21.25;9.20;;;;;;;;;;5048272;28;20053;-90
2023/09/26 07:22:44;;;;;;;23.70;8.45;;;;;;;;;;5033345;28;20046;-90
2023/09/26 07:25:12;;;;;;;39.15;7.68;;;;;;;;;;5032210;28;20049;-89
2023/09/26 07:27:40;;;;;;;12.65;5.47;;;;;;;;;;5033176;28;20301;-90
2023/09/26 07:30:11;;;;;;;12.38;5.40;;;;;;;;;;5028488;28;20046;-89
2023/09/26 07:32:38;;;;;;;8.77;4.50;;;;;;;;;;5029697;28;20121;-90
2023/09/26 07:35:05;;;;;;;7.07;4.55;;;;;;;;;;5024014;28;20053;-90
2023/09/26 07:37:33;;;;;;;7.57;4.30;;;;;;;;;;5032285;28;20498;-90
2023/09/26 07:40:03;;;;;;;10.85;4.13;;;;;;;;;;5031637;28;20654;-90
2023/09/26 07:42:30;;;;;;;7.57;3.58;;;;;;;;;;5032330;28;20081;-89
2023/09/26 07:44:58;;;;;;;3.33;3.13;;;;;;;;;;5030919;28;20088;-90
2023/09/26 07:47:25;;;;;;;3.63;3.03;;;;;;;;;;5032194;28;20053;-89
2023/09/26 07:49:52;;;;;;;2.90;2.67;;;;;;;;;;5032684;28;20049;-90
2023/09/26 07:52:22;;;;;;;4.15;2.38;;;;;;;;;;5033370;28;20486;-88
2023/09/26 07:54:50;;;;;;;5.82;2.72;;;;;;;;;;5036888;28;20056;-90
2023/09/26 07:57:17;;;;;;;19.60;5.93;;;;;;;;;;5036189;28;20128;-90
2023/09/26 07:59:44;;;;;;;19.40;5.50;;;;;;;;;;5035691;28;20077;-89
2023/09/26 08:02:12;;;;;;;10.23;5.03;;;;;;;;;;5035654;28;20053;-89
2023/09/26 08:04:39;;;;;;;14.95;5.53;;;;;;;;;;5035840;28;20112;-89
2023/09/26 08:07:06;;;;;;;11.77;3.55;;;;;;;;;;5035395;28;20135;-88
2023/09/26 08:09:34;;;;;;;7.35;2.58;;;;;;;;;;5035424;28;20414;-89
2023/09/26 08:12:01;;;;;;;18.95;4.97;;;;;;;;;;5036026;28;20386;-90
2023/09/26 08:14:29;;;;;;;19.23;5.65;;;;;;;;;;5032422;28;20247;-89
2023/09/26 08:16:56;;;;;;;25.25;7.18;;;;;;;;;;5050890;28;20076;-89
2023/09/26 08:19:23;;;;;;;25.77;6.65;;;;;;;;;;5035608;28;20045;-90
2023/09/26 08:21:50;;;;;;;17.77;5.38;;;;;;;;;;5035293;28;20056;-89
2023/09/26 08:24:18;;;;;;;9.65;3.47;;;;;;;;;;5035687;28;20041;-88
2023/09/26 08:26:45;;;;;;;12.60;4.22;;;;;;;;;;5036316;28;20049;-88
2023/09/26 08:29:12;;;;;;;4.95;2.40;;;;;;;;;;5051613;28;20049;-89
2023/09/26 08:31:39;;;;;;;2.08;1.90;;;;;;;;;;5036033;28;20053;-90
2023/09/26 08:34:07;;;;;;;4.15;2.10;;;;;;;;;;5035973;28;20045;-88
2023/09/26 08:36:34;;;;;;;4.22;1.77;;;;;;;;;;5031701;28;20046;-89
2023/09/26 08:39:01;;;;;;;4.03;1.80;;;;;;;;;;5051153;28;20085;-88
2023/09/26 08:41:30;;;;;;;3.22;1.65;;;;;;;;;;5051487;28;20042;-88
2023/09/26 08:43:57;;;;;;;1.75;1.52;;;;;;;;;;5035023;28;20045;-90
2023/09/26 08:46:25;;;;;;;1.67;1.52;;;;;;;;;;5034787;28;20045;-89
2023/09/26 08:48:55;;;;;;;1.92;1.83;;;;;;;;;;5035512;28;20045;-89
2023/09/26 08:51:25;;;;;;;1.48;1.38;;;;;;;;;;5035114;28;20498;-89
2023/09/26 08:53:53;;;;;;;1.85;1.67;;;;;;;;;;5035975;28;20414;-90
2023/09/26 08:56:21;;;;;;;9.45;2.20;;;;;;;;;;5034920;28;20482;-88
2023/09/26 08:58:50;;;;;;;3.78;1.88;;;;;;;;;;5034187;28;20046;-90
2023/09/26 09:01:18;;;;;;;1.85;1.70;;;;;;;;;;5034192;28;20072;-91
2023/09/26 09:03:46;;;;;;;2.95;1.67;;;;;;;;;;5035386;28;20053;-88
2023/09/26 09:06:14;;;;;;;1.73;1.58;;;;;;;;;;5034623;28;20529;-89
2023/09/26 09:08:41;;;;;;;5.18;1.48;;;;;;;;;;5035749;28;20482;-89
2023/09/26 09:11:08;;;;;;;3.00;1.63;;;;;;;;;;5034518;28;20049;-90
2023/09/26 09:13:40;;;;;;;1.75;1.63;;;;;;;;;;5034474;28;20498;-88
2023/09/26 09:16:09;;;;;;;1.20;1.20;;;;;;;;;;5035450;28;20127;-89
2023/09/26 09:18:37;;;;;;;1.65;1.55;;;;;;;;;;5051215;28;20053;-89
2023/09/26 09:21:24;;;;;;;2.97;1.50;;;;;;;;;;5050977;28;20045;-88
2023/09/26 09:23:52;;;;;;;2.25;1.42;;;;;;;;;;5050877;28;20113;-90
2023/09/26 09:26:20;;;;;;;2.92;1.63;;;;;;;;;;5033872;28;20049;-89
2023/09/26 09:28:48;;;;;;;3.88;1.42;;;;;;;;;;5034209;28;20049;-92
2023/09/26 09:31:16;;;;;;;7.45;2.08;;;;;;;;;;5034255;28;20049;-89
2023/09/26 09:33:44;;;;;;;2.53;1.42;;;;;;;;;;5034154;28;20103;-89
2023/09/26 09:36:12;;;;;;;3.10;1.40;;;;;;;;;;5035148;28;20049;-91
2023/09/26 09:38:40;;;;;;;8.88;1.70;;;;;;;;;;5034085;28;20096;-90
2023/09/26 09:41:08;;;;;;;3.40;1.40;;;;;;;;;;5026323;28;20053;-89
2023/09/26 09:43:36;;;;;;;1.95;1.80;;;;;;;;;;5034409;28;20080;-89
2023/09/26 09:46:10;;;;;;;4.00;1.20;;;;;;;;;;5033866;28;20045;-91
2023/09/26 09:48:42;;;;;;;5.57;1.83;;;;;;;;;;5034132;28;20046;-90
2023/09/26 09:51:14;;;;;;;1.48;1.38;;;;;;;;;;5026082;28;20049;-90
2023/09/26 09:53:42;;;;;;;6.30;1.73;;;;;;;;;;5034825;28;20072;-90
2023/09/26 09:56:12;;;;;;;2.05;1.42;;;;;;;;;;5034102;28;20081;-90
2023/09/26 09:58:41;;;;;;;3.03;1.80;;;;;;;;;;5034778;28;20103;-92
2023/09/26 10:01:08;;;;;;;1.60;1.30;;;;;;;;;;5026237;28;20059;-94
2023/09/26 10:03:36;;;;;;;1.88;1.40;;;;;;;;;;5034330;28;20049;-92
2023/09/26 10:06:08;;;;;;;2.25;1.50;;;;;;;;;;5025437;28;20548;-90
2023/09/26 10:08:37;;;;;;;2.17;1.50;;;;;;;;;;5030192;28;20081;-90
2023/09/26 10:11:05;;;;;;;2.85;1.48;;;;;;;;;;5050025;28;20087;-90
2023/09/26 10:13:35;;;;;;;4.80;1.40;;;;;;;;;;5033714;28;20490;-90
2023/09/26 10:16:11;;;;;;;5.35;1.73;;;;;;;;;;5032340;28;20056;-89
2023/09/26 10:18:44;;;;;;;4.78;1.98;;;;;;;;;;5035403;28;20095;-94
2023/09/26 10:21:20;;;;;;;4.45;1.70;;;;;;;;;;5033922;28;20474;-91
2023/09/26 10:24:06;;;;;;;3.67;1.70;;;;;;;;;;5034093;28;20053;-89
2023/09/26 10:26:33;;;;;;;3.92;1.88;;;;;;;;;;5034105;28;20041;-91
2023/09/26 10:29:15;;;;;;;2.60;1.60;;;;;;;;;;5032523;28;20057;-89
2023/09/26 10:31:53;;;;;;;4.90;1.90;;;;;;;;;;5034570;28;20111;-91
2023/09/26 10:34:24;;;;;;;3.65;2.05;;;;;;;;;;5033424;28;20056;-88
2023/09/26 10:37:16;;;;;;;3.78;1.88;;;;;;;;;;5033506;28;20079;-93
2023/09/26 10:39:46;;;;;;;8.50;2.28;;;;;;;;;;5033428;28;20055;-91
2023/09/26 10:42:14;;;;;;;2.97;1.60;;;;;;;;;;5033072;28;20060;-91
2023/09/26 10:45:01;;;;;;;4.32;1.98;;;;;;;;;;5033328;28;20057;-92
2023/09/26 10:47:29;;;;;;;6.32;2.03;;;;;;;;;;5029485;28;20119;-91
2023/09/26 10:49:57;;;;;;;1.90;1.70;;;;;;;;;;5032650;28;20084;-90
2023/09/26 10:52:47;;;;;;;2.70;1.90;;;;;;;;;;5033100;28;20059;-89
2023/09/26 10:55:19;;;;;;;3.40;1.80;;;;;;;;;;5034209;28;20387;-91
2023/09/26 10:57:51;;;;;;;2.50;1.83;;;;;;;;;;5032451;28;20478;-91
2023/09/26 11:00:18;;;;;;;2.22;1.70;;;;;;;;;;5033590;28;20409;-90
2023/09/26 11:02:47;;;;;;;3.72;2.08;;;;;;;;;;5033703;28;20050;-93
2023/09/26 11:05:15;;;;;;;3.33;1.77;;;;;;;;;;5032812;28;20056;-90
2023/09/26 11:07:44;;;;;;;4.35;2.25;;;;;;;;;;5034036;28;20056;-92
2023/09/26 11:10:32;;;;;;;4.57;2.00;;;;;;;;;;5033459;28;20045;-94
2023/09/26 11:12:59;;;;;;;4.13;1.95;;;;;;;;;;5032520;28;20049;-94
2023/09/26 11:15:27;;;;;;;5.75;2.05;;;;;;;;;;5034063;28;20053;-96
2023/09/26 11:17:54;;;;;;;4.30;2.17;;;;;;;;;;5031521;28;20085;-92
2023/09/26 11:20:21;;;;;;;2.35;2.10;;;;;;;;;;5032850;28;20045;-90
2023/09/26 11:22:52;;;;;;;8.35;2.22;;;;;;;;;;5031860;28;20111;-92
2023/09/26 11:25:20;;;;;;;4.53;2.22;;;;;;;;;;5032247;28;20049;-90
2023/09/26 11:27:48;;;;;;;5.03;2.38;;;;;;;;;;5033386;28;20072;-93
2023/09/26 11:30:17;;;;;;;5.43;2.20;;;;;;;;;;5033779;28;20049;-91
2023/09/26 11:32:50;;;;;;;13.10;2.53;;;;;;;;;;5033312;28;20073;-89
2023/09/26 11:35:19;;;;;;;3.30;2.13;;;;;;;;;;5033372;28;20049;-92
2023/09/26 11:37:49;;;;;;;4.75;2.42;;;;;;;;;;5029406;28;20085;-92
2023/09/26 11:40:24;;;;;;;7.82;2.50;;;;;;;;;;5032011;28;20049;-93
2023/09/26 11:42:55;;;;;;;4.28;2.40;;;;;;;;;;5032195;28;20115;-91
2023/09/26 11:45:24;;;;;;;6.13;2.33;;;;;;;;;;5032269;28;20053;-94
2023/09/26 11:47:53;;;;;;;7.82;2.47;;;;;;;;;;5032959;28;20141;-94
2023/09/26 11:50:22;;;;;;;3.47;2.65;;;;;;;;;;5033744;28;20054;-90
2023/09/26 11:52:52;;;;;;;6.03;2.40;;;;;;;;;;5032315;28;20046;-92
2023/09/26 11:55:22;;;;;;;4.70;2.55;;;;;;;;;;5031981;28;20056;-93
2023/09/26 11:57:50;;;;;;;6.03;2.20;;;;;;;;;;5031933;28;20045;-91
2023/09/26 12:00:17;;;;;;;9.38;2.85;;;;;;;;;;5033251;28;20041;-90
2023/09/26 12:02:45;;;;;;;3.85;2.35;;;;;;;;;;5031845;28;20053;-91
2023/09/26 12:05:13;;;;;;;5.45;2.50;;;;;;;;;;5032322;28;20053;-90
2023/09/26 12:07:41;;;;;;;10.70;2.78;;;;;;;;;;5031984;28;20054;-91
2023/09/26 12:10:09;;;;;;;5.63;2.38;;;;;;;;;;5033209;28;20108;-91
2023/09/26 12:12:37;;;;;;;3.40;2.30;;;;;;;;;;5033431;28;20478;-90
2023/09/26 12:15:23;;;;;;;4.22;2.40;;;;;;;;;;5033218;28;20053;-93
2023/09/26 12:17:56;;;;;;;6.82;2.30;;;;;;;;;;5049755;28;20057;-93
2023/09/26 12:20:26;;;;;;;3.60;2.55;;;;;;;;;;5032374;28;20050;-90
2023/09/26 12:22:57;;;;;;;6.43;2.17;;;;;;;;;;5032509;28;20072;-94
2023/09/26 12:25:27;;;;;;;6.82;2.35;;;;;;;;;;5032124;28;20057;-90
2023/09/26 12:27:55;;;;;;;9.35;2.50;;;;;;;;;;5032856;28;20140;-91
2023/09/26 12:30:22;;;;;;;8.82;2.97;;;;;;;;;;5031731;28;20065;-89
2023/09/26 12:32:50;;;;;;;7.82;2.45;;;;;;;;;;5032033;28;20054;-92
2023/09/26 12:35:18;;;;;;;4.30;2.40;;;;;;;;;;5031809;28;20452;-93
2023/09/26 12:37:46;;;;;;;5.85;2.53;;;;;;;;;;5032383;28;20055;-92
2023/09/26 12:40:13;;;;;;;5.18;2.42;;;;;;;;;;5035253;28;20049;-91
2023/09/26 12:42:41;;;;;;;14.13;2.88;;;;;;;;;;5035560;28;20064;-91
2023/09/26 12:45:09;;;;;;;6.25;2.15;;;;;;;;;;5035746;28;20056;-90
2023/09/26 12:47:37;;;;;;;9.40;2.45;;;;;;;;;;5035837;28;20496;-90
2023/09/26 12:50:08;;;;;;;2.78;2.17;;;;;;;;;;5035096;28;20050;-93
2023/09/26 12:52:38;;;;;;;5.00;2.03;;;;;;;;;;5035077;28;20487;-91
2023/09/26 12:55:06;;;;;;;8.90;2.67;;;;;;;;;;5035415;28;20050;-95
2023/09/26 12:57:33;;;;;;;5.60;2.33;;;;;;;;;;5035680;28;20045;-91
2023/09/26 13:00:01;;;;;;;4.50;2.45;;;;;;;;;;5035223;28;20096;-92
2023/09/26 13:02:30;;;;;;;7.00;2.00;;;;;;;;;;5033004;28;20058;-91
2023/09/26 13:04:57;;;;;;;7.68;2.40;;;;;;;;;;5051018;28;20053;-91
2023/09/26 13:07:24;;;;;;;2.50;2.22;;;;;;;;;;5038301;28;20106;-92
2023/09/26 13:09:52;;;;;;;7.25;2.75;;;;;;;;;;5036305;28;20050;-94
2023/09/26 13:12:20;;;;;;;4.75;2.58;;;;;;;;;;5031780;28;20069;-92
2023/09/26 13:14:47;;;;;;;4.25;2.58;;;;;;;;;;5048974;28;20549;-91
2023/09/26 13:17:14;;;;;;;3.95;2.70;;;;;;;;;;5036471;28;20053;-92
2023/09/26 13:19:42;;;;;;;6.80;2.53;;;;;;;;;;5034846;28;20072;-91
2023/09/26 13:22:14;;;;;;;5.55;2.65;;;;;;;;;;5035063;28;20482;-91
2023/09/26 13:24:42;;;;;;;3.88;2.28;;;;;;;;;;5034941;28;20049;-90
2023/09/26 13:27:09;;;;;;;4.95;2.45;;;;;;;;;;5034952;28;20401;-92
2023/09/26 13:29:37;;;;;;;7.50;2.50;;;;;;;;;;5034992;28;20405;-90
2023/09/26 13:32:05;;;;;;;3.58;2.42;;;;;;;;;;5035684;28;20057;-92
2023/09/26 13:34:33;;;;;;;3.78;2.50;;;;;;;;;;5034899;28;20053;-92
2023/09/26 13:37:00;;;;;;;3.75;2.40;;;;;;;;;;5034383;28;20057;-93
2023/09/26 13:39:28;;;;;;;6.60;2.42;;;;;;;;;;5034623;28;20056;-92
2023/09/26 13:41:56;;;;;;;9.90;2.90;;;;;;;;;;5035224;28;20053;-91
2023/09/26 13:44:23;;;;;;;9.80;2.92;;;;;;;;;;5035383;28;20049;-94
2023/09/26 13:46:50;;;;;;;7.15;3.05;;;;;;;;;;5034890;28;20132;-92
2023/09/26 13:49:18;;;;;;;6.20;2.38;;;;;;;;;;5034740;28;20069;-93
2023/09/26 13:51:45;;;;;;;5.13;2.15;;;;;;;;;;5035168;28;20085;-91
2023/09/26 13:54:12;;;;;;;6.00;3.13;;;;;;;;;;5034301;28;20080;-91
2023/09/26 13:56:40;;;;;;;8.35;2.67;;;;;;;;;;5034380;28;20057;-92
2023/09/26 13:59:07;;;;;;;3.35;2.40;;;;;;;;;;5034021;28;20477;-91
2023/09/26 14:01:35;;;;;;;7.28;2.45;;;;;;;;;;5034108;28;20119;-91
2023/09/26 14:04:03;;;;;;;4.63;2.70;;;;;;;;;;5034139;28;20462;-91
2023/09/26 14:06:30;;;;;;;10.90;2.78;;;;;;;;;;5033992;28;20096;-93
2023/09/26 14:08:58;;;;;;;5.55;2.40;;;;;;;;;;5033911;28;20457;-92
2023/09/26 14:11:25;;;;;;;3.92;2.20;;;;;;;;;;5033423;28;20159;-91
2023/09/26 14:13:52;;;;;;;4.72;2.58;;;;;;;;;;5033616;28;20057;-92
2023/09/26 14:16:19;;;;;;;3.85;2.88;;;;;;;;;;5033467;28;20076;-92
2023/09/26 14:18:47;;;;;;;5.45;2.65;;;;;;;;;;5033355;28;20049;-91
2023/09/26 14:21:14;;;;;;;4.95;2.88;;;;;;;;;;5033377;28;20053;-92
2023/09/26 14:23:42;;;;;;;6.38;2.47;;;;;;;;;;5033991;28;20581;-91
2023/09/26 14:26:09;;;;;;;7.70;2.65;;;;;;;;;;5033556;28;20486;-90
2023/09/26 14:28:39;;;;;;;4.10;2.22;;;;;;;;;;5033833;28;20402;-90
2023/09/26 14:31:08;;;;;;;4.85;2.75;;;;;;;;;;5031958;28;20108;-92
2023/09/26 14:33:36;;;;;;;7.03;2.95;;;;;;;;;;5048408;28;20058;-92
2023/09/26 14:36:03;;;;;;;3.90;2.35;;;;;;;;;;5032944;28;20092;-91
2023/09/26 14:38:31;;;;;;;5.75;2.60;;;;;;;;;;5033028;28;20045;-89
2023/09/26 14:40:58;;;;;;;5.40;2.30;;;;;;;;;;5033163;28;20045;-92
2023/09/26 14:43:25;;;;;;;3.95;2.75;;;;;;;;;;5033485;28;20091;-92
2023/09/26 14:45:52;;;;;;;4.78;3.08;;;;;;;;;;5033015;28;20131;-92